sensor_id;sensor_type;location;lat;lon;timestamp;P1;durP1;ratioP1;P2;durP2;ratioP2
16928;SDS011;8581;47.334;11.190;2023-05-09T00:02:08;1.80;;;1.17;;
16928;SDS011;8581;47.334;11.190;2023-05-09T00:04:40;1.30;;;1.20;;
16928;SDS011;8581;47.334;11.190;2023-05-09T00:07:11;1.37;;;1.27;;
16928;SDS011;8581;47.334;11.190;2023-05-09T00:09:43;1.50;;;1.40;;
16928;SDS011;8581;47.334;11.190;2023-05-09T00:12:15;1.40;;;1.30;;
16928;SDS011;8581;47.334;11.190;2023-05-09T00:14:46;1.23;;;1.13;;
16928;SDS011;8581;47.334;11.190;2023-05-09T00:17:18;1.10;;;1.10;;
16928;SDS011;8581;47.334;11.190;2023-05-09T00:19:50;1.10;;;1.10;;
16928;SDS011;8581;47.334;11.190;2023-05-09T00:22:21;1.23;;;1.23;;
16928;SDS011;8581;47.334;11.190;2023-05-09T00:24:53;1.97;;;1.23;;
16928;SDS011;8581;47.334;11.190;2023-05-09T00:27:24;1.17;;;1.17;;
16928;SDS011;8581;47.334;11.190;2023-05-09T00:29:56;0.90;;;0.90;;
16928;SDS011;8581;47.334;11.190;2023-05-09T00:32:28;1.40;;;1.27;;
16928;SDS011;8581;47.334;11.190;2023-05-09T00:34:59;1.07;;;1.07;;
16928;SDS011;8581;47.334;11.190;2023-05-09T00:37:31;1.00;;;1.00;;
16928;SDS011;8581;47.334;11.190;2023-05-09T00:40:03;0.90;;;0.90;;
16928;SDS011;8581;47.334;11.190;2023-05-09T00:42:35;1.93;;;1.10;;
16928;SDS011;8581;47.334;11.190;2023-05-09T00:45:07;1.67;;;1.50;;
16928;SDS011;8581;47.334;11.190;2023-05-09T00:47:40;1.50;;;1.40;;
16928;SDS011;8581;47.334;11.190;2023-05-09T00:50:11;1.30;;;1.20;;
16928;SDS011;8581;47.334;11.190;2023-05-09T00:52:43;1.00;;;1.00;;
16928;SDS011;8581;47.334;11.190;2023-05-09T00:55:15;0.90;;;0.90;;
16928;SDS011;8581;47.334;11.190;2023-05-09T00:57:47;1.30;;;1.17;;
16928;SDS011;8581;47.334;11.190;2023-05-09T01:00:18;1.17;;;1.10;;
16928;SDS011;8581;47.334;11.190;2023-05-09T01:02:52;1.00;;;1.00;;
16928;SDS011;8581;47.334;11.190;2023-05-09T01:05:24;1.10;;;1.10;;
16928;SDS011;8581;47.334;11.190;2023-05-09T01:07:56;1.53;;;1.43;;
16928;SDS011;8581;47.334;11.190;2023-05-09T01:10:30;1.53;;;1.43;;
16928;SDS011;8581;47.334;11.190;2023-05-09T01:13:05;1.37;;;1.30;;
16928;SDS011;8581;47.334;11.190;2023-05-09T01:15:38;1.43;;;1.33;;
16928;SDS011;8581;47.334;11.190;2023-05-09T01:18:29;1.57;;;1.47;;
16928;SDS011;8581;47.334;11.190;2023-05-09T01:21:07;1.47;;;1.37;;
16928;SDS011;8581;47.334;11.190;2023-05-09T01:23:59;1.30;;;1.30;;
16928;SDS011;8581;47.334;11.190;2023-05-09T01:26:45;2.83;;;1.40;;
16928;SDS011;8581;47.334;11.190;2023-05-09T01:29:38;1.37;;;1.30;;
16928;SDS011;8581;47.334;11.190;2023-05-09T01:32:13;1.47;;;1.10;;
16928;SDS011;8581;47.334;11.190;2023-05-09T01:34:47;1.00;;;1.00;;
16928;SDS011;8581;47.334;11.190;2023-05-09T01:37:21;1.10;;;1.10;;
16928;SDS011;8581;47.334;11.190;2023-05-09T01:39:51;1.47;;;1.30;;
16928;SDS011;8581;47.334;11.190;2023-05-09T01:42:22;1.10;;;1.10;;
16928;SDS011;8581;47.334;11.190;2023-05-09T01:44:53;3.47;;;1.50;;
16928;SDS011;8581;47.334;11.190;2023-05-09T01:47:25;13.53;;;1.90;;
16928;SDS011;8581;47.334;11.190;2023-05-09T01:49:57;2.50;;;1.40;;
16928;SDS011;8581;47.334;11.190;2023-05-09T01:52:28;2.53;;;1.40;;
16928;SDS011;8581;47.334;11.190;2023-05-09T01:55:00;1.20;;;1.20;;
16928;SDS011;8581;47.334;11.190;2023-05-09T01:57:32;2.13;;;1.40;;
16928;SDS011;8581;47.334;11.190;2023-05-09T02:00:03;2.93;;;1.43;;
16928;SDS011;8581;47.334;11.190;2023-05-09T02:02:36;1.50;;;1.40;;
16928;SDS011;8581;47.334;11.190;2023-05-09T02:05:08;1.57;;;1.47;;
16928;SDS011;8581;47.334;11.190;2023-05-09T02:07:40;2.23;;;1.80;;
16928;SDS011;8581;47.334;11.190;2023-05-09T02:10:11;2.77;;;2.00;;
16928;SDS011;8581;47.334;11.190;2023-05-09T02:12:43;2.47;;;1.70;;
16928;SDS011;8581;47.334;11.190;2023-05-09T02:15:14;4.27;;;2.00;;
16928;SDS011;8581;47.334;11.190;2023-05-09T02:17:46;7.57;;;2.23;;
16928;SDS011;8581;47.334;11.190;2023-05-09T02:20:18;7.20;;;2.10;;
16928;SDS011;8581;47.334;11.190;2023-05-09T02:22:49;8.03;;;2.17;;
16928;SDS011;8581;47.334;11.190;2023-05-09T02:25:21;2.00;;;1.90;;
16928;SDS011;8581;47.334;11.190;2023-05-09T02:27:53;1.87;;;1.77;;
16928;SDS011;8581;47.334;11.190;2023-05-09T02:30:24;1.93;;;1.80;;
16928;SDS011;8581;47.334;11.190;2023-05-09T02:32:56;1.40;;;1.30;;
16928;SDS011;8581;47.334;11.190;2023-05-09T02:35:27;2.13;;;1.50;;
16928;SDS011;8581;47.334;11.190;2023-05-09T02:37:59;1.20;;;1.20;;
16928;SDS011;8581;47.334;11.190;2023-05-09T02:40:30;1.30;;;1.30;;
16928;SDS011;8581;47.334;11.190;2023-05-09T02:43:02;1.20;;;1.20;;
16928;SDS011;8581;47.334;11.190;2023-05-09T02:45:34;1.50;;;1.40;;
16928;SDS011;8581;47.334;11.190;2023-05-09T02:48:06;1.07;;;1.03;;
16928;SDS011;8581;47.334;11.190;2023-05-09T02:50:37;1.07;;;1.00;;
16928;SDS011;8581;47.334;11.190;2023-05-09T02:53:09;1.00;;;1.00;;
16928;SDS011;8581;47.334;11.190;2023-05-09T02:55:41;1.00;;;1.00;;
16928;SDS011;8581;47.334;11.190;2023-05-09T02:58:12;1.03;;;1.00;;
16928;SDS011;8581;47.334;11.190;2023-05-09T03:00:44;1.20;;;1.10;;
16928;SDS011;8581;47.334;11.190;2023-05-09T03:03:15;1.20;;;1.10;;
16928;SDS011;8581;47.334;11.190;2023-05-09T03:05:47;1.03;;;1.03;;
16928;SDS011;8581;47.334;11.190;2023-05-09T03:08:19;1.00;;;1.00;;
16928;SDS011;8581;47.334;11.190;2023-05-09T03:10:50;1.53;;;1.07;;
16928;SDS011;8581;47.334;11.190;2023-05-09T03:13:22;1.13;;;1.03;;
16928;SDS011;8581;47.334;11.190;2023-05-09T03:15:53;1.73;;;1.00;;
16928;SDS011;8581;47.334;11.190;2023-05-09T03:18:25;2.40;;;1.00;;
16928;SDS011;8581;47.334;11.190;2023-05-09T03:20:57;1.17;;;1.10;;
16928;SDS011;8581;47.334;11.190;2023-05-09T03:23:28;0.83;;;0.83;;
16928;SDS011;8581;47.334;11.190;2023-05-09T03:26:00;0.80;;;0.80;;
16928;SDS011;8581;47.334;11.190;2023-05-09T03:28:31;1.23;;;1.10;;
16928;SDS011;8581;47.334;11.190;2023-05-09T03:31:03;0.70;;;0.70;;
16928;SDS011;8581;47.334;11.190;2023-05-09T03:33:35;0.70;;;0.70;;
16928;SDS011;8581;47.334;11.190;2023-05-09T03:36:06;0.70;;;0.70;;
16928;SDS011;8581;47.334;11.190;2023-05-09T03:38:43;0.67;;;0.67;;
16928;SDS011;8581;47.334;11.190;2023-05-09T03:41:15;0.90;;;0.90;;
16928;SDS011;8581;47.334;11.190;2023-05-09T03:43:46;1.93;;;1.20;;
16928;SDS011;8581;47.334;11.190;2023-05-09T03:46:17;0.70;;;0.70;;
16928;SDS011;8581;47.334;11.190;2023-05-09T03:48:49;3.63;;;2.83;;
16928;SDS011;8581;47.334;11.190;2023-05-09T03:51:21;2.23;;;1.80;;
16928;SDS011;8581;47.334;11.190;2023-05-09T03:53:52;3.93;;;1.40;;
16928;SDS011;8581;47.334;11.190;2023-05-09T03:56:24;1.00;;;1.00;;
16928;SDS011;8581;47.334;11.190;2023-05-09T03:58:55;1.40;;;1.30;;
16928;SDS011;8581;47.334;11.190;2023-05-09T04:01:27;0.97;;;0.97;;
16928;SDS011;8581;47.334;11.190;2023-05-09T04:03:59;0.87;;;0.87;;
16928;SDS011;8581;47.334;11.190;2023-05-09T04:06:30;0.80;;;0.80;;
16928;SDS011;8581;47.334;11.190;2023-05-09T04:09:02;0.70;;;0.70;;
16928;SDS011;8581;47.334;11.190;2023-05-09T04:11:33;0.57;;;0.57;;
16928;SDS011;8581;47.334;11.190;2023-05-09T04:14:05;1.07;;;1.00;;
16928;SDS011;8581;47.334;11.190;2023-05-09T04:16:37;0.70;;;0.70;;
16928;SDS011;8581;47.334;11.190;2023-05-09T04:19:08;0.83;;;0.83;;
16928;SDS011;8581;47.334;11.190;2023-05-09T04:21:40;2.20;;;0.80;;
16928;SDS011;8581;47.334;11.190;2023-05-09T04:24:11;1.00;;;0.80;;
16928;SDS011;8581;47.334;11.190;2023-05-09T04:26:43;0.80;;;0.80;;
16928;SDS011;8581;47.334;11.190;2023-05-09T04:29:15;1.07;;;0.80;;
16928;SDS011;8581;47.334;11.190;2023-05-09T04:31:46;2.37;;;0.70;;
16928;SDS011;8581;47.334;11.190;2023-05-09T04:34:18;1.00;;;1.00;;
16928;SDS011;8581;47.334;11.190;2023-05-09T04:36:49;1.80;;;0.90;;
16928;SDS011;8581;47.334;11.190;2023-05-09T04:39:21;0.70;;;0.70;;
16928;SDS011;8581;47.334;11.190;2023-05-09T04:41:53;0.67;;;0.67;;
16928;SDS011;8581;47.334;11.190;2023-05-09T04:44:24;0.80;;;0.80;;
16928;SDS011;8581;47.334;11.190;2023-05-09T04:46:56;0.70;;;0.70;;
16928;SDS011;8581;47.334;11.190;2023-05-09T04:49:27;0.70;;;0.70;;
16928;SDS011;8581;47.334;11.190;2023-05-09T04:51:59;0.60;;;0.60;;
16928;SDS011;8581;47.334;11.190;2023-05-09T04:54:31;1.17;;;0.70;;
16928;SDS011;8581;47.334;11.190;2023-05-09T04:57:02;0.83;;;0.83;;
16928;SDS011;8581;47.334;11.190;2023-05-09T04:59:34;0.70;;;0.70;;
16928;SDS011;8581;47.334;11.190;2023-05-09T05:02:06;0.70;;;0.70;;
16928;SDS011;8581;47.334;11.190;2023-05-09T05:04:37;0.63;;;0.60;;
16928;SDS011;8581;47.334;11.190;2023-05-09T05:07:09;1.30;;;1.20;;
16928;SDS011;8581;47.334;11.190;2023-05-09T05:09:40;2.30;;;1.10;;
16928;SDS011;8581;47.334;11.190;2023-05-09T05:12:12;0.90;;;0.90;;
16928;SDS011;8581;47.334;11.190;2023-05-09T05:14:44;0.90;;;0.90;;
16928;SDS011;8581;47.334;11.190;2023-05-09T05:17:15;0.50;;;0.50;;
16928;SDS011;8581;47.334;11.190;2023-05-09T05:19:47;0.70;;;0.50;;
16928;SDS011;8581;47.334;11.190;2023-05-09T05:22:24;1.80;;;0.60;;
16928;SDS011;8581;47.334;11.190;2023-05-09T05:24:56;0.50;;;0.50;;
16928;SDS011;8581;47.334;11.190;2023-05-09T05:27:27;0.83;;;0.70;;
16928;SDS011;8581;47.334;11.190;2023-05-09T05:29:59;0.67;;;0.50;;
16928;SDS011;8581;47.334;11.190;2023-05-09T05:32:31;0.50;;;0.50;;
16928;SDS011;8581;47.334;11.190;2023-05-09T05:35:02;0.40;;;0.40;;
16928;SDS011;8581;47.334;11.190;2023-05-09T05:37:34;0.53;;;0.50;;
16928;SDS011;8581;47.334;11.190;2023-05-09T05:40:06;0.50;;;0.50;;
16928;SDS011;8581;47.334;11.190;2023-05-09T05:42:39;0.70;;;0.60;;
16928;SDS011;8581;47.334;11.190;2023-05-09T05:45:10;0.70;;;0.70;;
16928;SDS011;8581;47.334;11.190;2023-05-09T05:47:42;0.47;;;0.47;;
16928;SDS011;8581;47.334;11.190;2023-05-09T05:50:13;0.50;;;0.50;;
16928;SDS011;8581;47.334;11.190;2023-05-09T05:52:45;0.60;;;0.50;;
16928;SDS011;8581;47.334;11.190;2023-05-09T05:55:17;0.70;;;0.60;;
16928;SDS011;8581;47.334;11.190;2023-05-09T05:57:48;0.60;;;0.60;;
16928;SDS011;8581;47.334;11.190;2023-05-09T06:00:20;0.73;;;0.73;;
16928;SDS011;8581;47.334;11.190;2023-05-09T06:02:51;0.57;;;0.57;;
16928;SDS011;8581;47.334;11.190;2023-05-09T06:05:23;0.50;;;0.50;;
16928;SDS011;8581;47.334;11.190;2023-05-09T06:07:55;1.27;;;0.80;;
16928;SDS011;8581;47.334;11.190;2023-05-09T06:10:26;2.00;;;0.50;;
16928;SDS011;8581;47.334;11.190;2023-05-09T06:12:58;0.50;;;0.50;;
16928;SDS011;8581;47.334;11.190;2023-05-09T06:15:29;0.63;;;0.63;;
16928;SDS011;8581;47.334;11.190;2023-05-09T06:18:01;0.50;;;0.50;;
16928;SDS011;8581;47.334;11.190;2023-05-09T06:20:33;0.50;;;0.50;;
16928;SDS011;8581;47.334;11.190;2023-05-09T06:23:04;0.60;;;0.60;;
16928;SDS011;8581;47.334;11.190;2023-05-09T06:25:36;1.03;;;0.83;;
16928;SDS011;8581;47.334;11.190;2023-05-09T06:28:08;0.87;;;0.87;;
16928;SDS011;8581;47.334;11.190;2023-05-09T06:30:39;1.50;;;1.40;;
16928;SDS011;8581;47.334;11.190;2023-05-09T06:33:11;1.50;;;1.40;;
16928;SDS011;8581;47.334;11.190;2023-05-09T06:35:42;1.50;;;1.40;;
16928;SDS011;8581;47.334;11.190;2023-05-09T06:38:14;1.60;;;1.50;;
16928;SDS011;8581;47.334;11.190;2023-05-09T06:40:46;2.10;;;1.90;;
16928;SDS011;8581;47.334;11.190;2023-05-09T06:43:17;2.07;;;1.97;;
16928;SDS011;8581;47.334;11.190;2023-05-09T06:45:49;1.70;;;1.60;;
16928;SDS011;8581;47.334;11.190;2023-05-09T06:48:26;2.57;;;1.50;;
16928;SDS011;8581;47.334;11.190;2023-05-09T06:50:58;0.97;;;0.97;;
16928;SDS011;8581;47.334;11.190;2023-05-09T06:53:29;0.90;;;0.90;;
16928;SDS011;8581;47.334;11.190;2023-05-09T06:56:01;1.33;;;1.23;;
16928;SDS011;8581;47.334;11.190;2023-05-09T06:58:33;1.23;;;1.00;;
16928;SDS011;8581;47.334;11.190;2023-05-09T07:01:04;1.43;;;1.33;;
16928;SDS011;8581;47.334;11.190;2023-05-09T07:03:36;1.20;;;1.10;;
16928;SDS011;8581;47.334;11.190;2023-05-09T07:06:08;1.40;;;1.30;;
16928;SDS011;8581;47.334;11.190;2023-05-09T07:08:40;1.20;;;1.10;;
16928;SDS011;8581;47.334;11.190;2023-05-09T07:11:11;1.30;;;1.20;;
16928;SDS011;8581;47.334;11.190;2023-05-09T07:13:43;1.33;;;1.23;;
16928;SDS011;8581;47.334;11.190;2023-05-09T07:16:15;1.50;;;1.40;;
16928;SDS011;8581;47.334;11.190;2023-05-09T07:18:46;1.50;;;1.40;;
16928;SDS011;8581;47.334;11.190;2023-05-09T07:21:18;1.60;;;1.50;;
16928;SDS011;8581;47.334;11.190;2023-05-09T07:23:49;1.30;;;1.20;;
16928;SDS011;8581;47.334;11.190;2023-05-09T07:26:21;1.20;;;1.10;;
16928;SDS011;8581;47.334;11.190;2023-05-09T07:28:53;0.97;;;0.97;;
16928;SDS011;8581;47.334;11.190;2023-05-09T07:31:24;1.10;;;1.10;;
16928;SDS011;8581;47.334;11.190;2023-05-09T07:33:56;0.90;;;0.90;;
16928;SDS011;8581;47.334;11.190;2023-05-09T07:36:27;1.27;;;1.07;;
16928;SDS011;8581;47.334;11.190;2023-05-09T07:38:59;1.20;;;1.10;;
16928;SDS011;8581;47.334;11.190;2023-05-09T07:41:31;1.57;;;1.47;;
16928;SDS011;8581;47.334;11.190;2023-05-09T07:44:02;1.40;;;1.30;;
16928;SDS011;8581;47.334;11.190;2023-05-09T07:46:34;1.27;;;1.20;;
16928;SDS011;8581;47.334;11.190;2023-05-09T07:49:05;2.03;;;1.30;;
16928;SDS011;8581;47.334;11.190;2023-05-09T07:51:37;1.10;;;1.10;;
16928;SDS011;8581;47.334;11.190;2023-05-09T07:54:09;1.00;;;1.00;;
16928;SDS011;8581;47.334;11.190;2023-05-09T07:56:40;0.90;;;0.90;;
16928;SDS011;8581;47.334;11.190;2023-05-09T07:59:12;1.10;;;1.00;;
16928;SDS011;8581;47.334;11.190;2023-05-09T08:01:43;1.00;;;0.90;;
16928;SDS011;8581;47.334;11.190;2023-05-09T08:04:15;0.90;;;0.90;;
16928;SDS011;8581;47.334;11.190;2023-05-09T08:06:47;0.97;;;0.87;;
16928;SDS011;8581;47.334;11.190;2023-05-09T08:09:18;0.80;;;0.80;;
16928;SDS011;8581;47.334;11.190;2023-05-09T08:11:50;2.20;;;0.80;;
16928;SDS011;8581;47.334;11.190;2023-05-09T08:14:22;1.07;;;1.07;;
16928;SDS011;8581;47.334;11.190;2023-05-09T08:16:53;1.07;;;0.98;;
16928;SDS011;8581;47.334;11.190;2023-05-09T08:19:25;1.43;;;1.30;;
16928;SDS011;8581;47.334;11.190;2023-05-09T08:21:56;1.95;;;1.42;;
16928;SDS011;8581;47.334;11.190;2023-05-09T08:24:28;1.50;;;1.40;;
16928;SDS011;8581;47.334;11.190;2023-05-09T08:26:59;2.60;;;2.30;;
16928;SDS011;8581;47.334;11.190;2023-05-09T08:29:31;2.10;;;2.00;;
16928;SDS011;8581;47.334;11.190;2023-05-09T08:32:03;2.73;;;2.20;;
16928;SDS011;8581;47.334;11.190;2023-05-09T08:34:35;2.30;;;2.10;;
16928;SDS011;8581;47.334;11.190;2023-05-09T08:37:06;2.20;;;2.07;;
16928;SDS011;8581;47.334;11.190;2023-05-09T08:39:38;2.83;;;2.40;;
16928;SDS011;8581;47.334;11.190;2023-05-09T08:42:10;3.00;;;2.70;;
16928;SDS011;8581;47.334;11.190;2023-05-09T08:44:41;2.57;;;1.87;;
16928;SDS011;8581;47.334;11.190;2023-05-09T08:47:13;1.43;;;1.33;;
16928;SDS011;8581;47.334;11.190;2023-05-09T08:49:45;2.27;;;2.00;;
16928;SDS011;8581;47.334;11.190;2023-05-09T08:52:16;2.83;;;1.60;;
16928;SDS011;8581;47.334;11.190;2023-05-09T08:54:48;1.80;;;1.70;;
16928;SDS011;8581;47.334;11.190;2023-05-09T08:57:20;1.20;;;1.10;;
16928;SDS011;8581;47.334;11.190;2023-05-09T08:59:51;2.23;;;0.97;;
16928;SDS011;8581;47.334;11.190;2023-05-09T09:02:23;3.08;;;1.55;;
16928;SDS011;8581;47.334;11.190;2023-05-09T09:04:54;1.40;;;1.30;;
16928;SDS011;8581;47.334;11.190;2023-05-09T09:07:26;1.27;;;1.17;;
16928;SDS011;8581;47.334;11.190;2023-05-09T09:09:58;2.90;;;1.17;;
16928;SDS011;8581;47.334;11.190;2023-05-09T09:12:29;1.70;;;1.60;;
16928;SDS011;8581;47.334;11.190;2023-05-09T09:15:04;2.12;;;1.30;;
16928;SDS011;8581;47.334;11.190;2023-05-09T09:17:36;1.13;;;1.13;;
16928;SDS011;8581;47.334;11.190;2023-05-09T09:20:09;1.47;;;1.37;;
16928;SDS011;8581;47.334;11.190;2023-05-09T09:22:41;1.10;;;1.10;;
16928;SDS011;8581;47.334;11.190;2023-05-09T09:25:12;1.60;;;1.50;;
16928;SDS011;8581;47.334;11.190;2023-05-09T09:27:43;2.70;;;1.60;;
16928;SDS011;8581;47.334;11.190;2023-05-09T09:30:16;1.22;;;1.20;;
16928;SDS011;8581;47.334;11.190;2023-05-09T09:32:48;1.40;;;1.30;;
16928;SDS011;8581;47.334;11.190;2023-05-09T09:35:19;3.85;;;1.72;;
16928;SDS011;8581;47.334;11.190;2023-05-09T09:37:54;1.40;;;1.30;;
16928;SDS011;8581;47.334;11.190;2023-05-09T09:40:22;1.05;;;1.05;;
16928;SDS011;8581;47.334;11.190;2023-05-09T09:42:54;1.30;;;1.20;;
16928;SDS011;8581;47.334;11.190;2023-05-09T09:45:26;0.95;;;0.95;;
16928;SDS011;8581;47.334;11.190;2023-05-09T09:47:57;1.60;;;1.35;;
16928;SDS011;8581;47.334;11.190;2023-05-09T09:50:29;2.35;;;1.40;;
16928;SDS011;8581;47.334;11.190;2023-05-09T09:53:01;1.45;;;1.35;;
16928;SDS011;8581;47.334;11.190;2023-05-09T09:55:33;1.15;;;1.05;;
16928;SDS011;8581;47.334;11.190;2023-05-09T09:58:05;1.27;;;1.17;;
16928;SDS011;8581;47.334;11.190;2023-05-09T10:00:35;2.15;;;1.02;;
16928;SDS011;8581;47.334;11.190;2023-05-09T10:03:08;0.60;;;0.60;;
16928;SDS011;8581;47.334;11.190;2023-05-09T10:05:39;3.08;;;1.15;;
16928;SDS011;8581;47.334;11.190;2023-05-09T10:08:10;1.45;;;0.80;;
16928;SDS011;8581;47.334;11.190;2023-05-09T10:10:42;2.87;;;1.27;;
16928;SDS011;8581;47.334;11.190;2023-05-09T10:13:13;3.72;;;1.10;;
16928;SDS011;8581;47.334;11.190;2023-05-09T10:15:45;2.47;;;1.35;;
16928;SDS011;8581;47.334;11.190;2023-05-09T10:18:17;0.85;;;0.80;;
16928;SDS011;8581;47.334;11.190;2023-05-09T10:20:48;1.37;;;1.00;;
16928;SDS011;8581;47.334;11.190;2023-05-09T10:23:20;1.10;;;1.00;;
16928;SDS011;8581;47.334;11.190;2023-05-09T10:25:57;0.82;;;0.82;;
16928;SDS011;8581;47.334;11.190;2023-05-09T10:28:27;2.27;;;0.62;;
16928;SDS011;8581;47.334;11.190;2023-05-09T10:31:00;0.68;;;0.57;;
16928;SDS011;8581;47.334;11.190;2023-05-09T10:33:30;0.60;;;0.60;;
16928;SDS011;8581;47.334;11.190;2023-05-09T10:36:01;0.70;;;0.70;;
16928;SDS011;8581;47.334;11.190;2023-05-09T10:38:33;0.90;;;0.55;;
16928;SDS011;8581;47.334;11.190;2023-05-09T10:41:05;0.60;;;0.60;;
16928;SDS011;8581;47.334;11.190;2023-05-09T10:43:37;1.37;;;0.70;;
16928;SDS011;8581;47.334;11.190;2023-05-09T10:46:08;0.60;;;0.53;;
16928;SDS011;8581;47.334;11.190;2023-05-09T10:48:40;5.65;;;0.70;;
16928;SDS011;8581;47.334;11.190;2023-05-09T10:51:11;0.60;;;0.60;;
16928;SDS011;8581;47.334;11.190;2023-05-09T10:53:44;3.10;;;0.75;;
16928;SDS011;8581;47.334;11.190;2023-05-09T10:56:21;0.80;;;0.60;;
16928;SDS011;8581;47.334;11.190;2023-05-09T10:58:55;0.50;;;0.50;;
16928;SDS011;8581;47.334;11.190;2023-05-09T11:01:28;1.00;;;0.70;;
16928;SDS011;8581;47.334;11.190;2023-05-09T11:03:59;0.62;;;0.62;;
16928;SDS011;8581;47.334;11.190;2023-05-09T11:06:48;0.60;;;0.60;;
16928;SDS011;8581;47.334;11.190;2023-05-09T11:09:22;0.60;;;0.60;;
16928;SDS011;8581;47.334;11.190;2023-05-09T11:11:55;0.50;;;0.50;;
16928;SDS011;8581;47.334;11.190;2023-05-09T11:14:31;2.05;;;0.60;;
16928;SDS011;8581;47.334;11.190;2023-05-09T11:17:05;3.35;;;1.30;;
16928;SDS011;8581;47.334;11.190;2023-05-09T11:19:39;1.32;;;0.60;;
16928;SDS011;8581;47.334;11.190;2023-05-09T11:22:11;0.72;;;0.42;;
16928;SDS011;8581;47.334;11.190;2023-05-09T11:24:45;1.92;;;0.53;;
16928;SDS011;8581;47.334;11.190;2023-05-09T11:27:20;1.10;;;0.62;;
16928;SDS011;8581;47.334;11.190;2023-05-09T11:29:52;0.98;;;0.60;;
16928;SDS011;8581;47.334;11.190;2023-05-09T11:32:29;4.42;;;0.70;;
16928;SDS011;8581;47.334;11.190;2023-05-09T11:35:04;0.53;;;0.53;;
16928;SDS011;8581;47.334;11.190;2023-05-09T11:37:44;1.37;;;0.40;;
16928;SDS011;8581;47.334;11.190;2023-05-09T11:40:16;0.40;;;0.40;;
16928;SDS011;8581;47.334;11.190;2023-05-09T11:42:49;2.67;;;0.60;;
16928;SDS011;8581;47.334;11.190;2023-05-09T11:45:20;0.42;;;0.40;;
16928;SDS011;8581;47.334;11.190;2023-05-09T11:47:51;1.35;;;0.70;;
16928;SDS011;8581;47.334;11.190;2023-05-09T11:50:23;1.20;;;0.53;;
16928;SDS011;8581;47.334;11.190;2023-05-09T11:52:54;3.15;;;0.50;;
16928;SDS011;8581;47.334;11.190;2023-05-09T11:55:26;0.95;;;0.40;;
16928;SDS011;8581;47.334;11.190;2023-05-09T11:57:58;0.42;;;0.42;;
16928;SDS011;8581;47.334;11.190;2023-05-09T12:00:30;3.00;;;0.80;;
16928;SDS011;8581;47.334;11.190;2023-05-09T12:03:03;0.50;;;0.50;;
16928;SDS011;8581;47.334;11.190;2023-05-09T12:05:33;0.55;;;0.53;;
16928;SDS011;8581;47.334;11.190;2023-05-09T12:08:05;0.40;;;0.40;;
16928;SDS011;8581;47.334;11.190;2023-05-09T12:10:37;0.50;;;0.50;;
16928;SDS011;8581;47.334;11.190;2023-05-09T12:13:08;1.65;;;0.45;;
16928;SDS011;8581;47.334;11.190;2023-05-09T12:15:39;0.60;;;0.30;;
16928;SDS011;8581;47.334;11.190;2023-05-09T12:18:11;2.87;;;0.80;;
16928;SDS011;8581;47.334;11.190;2023-05-09T12:20:46;1.37;;;0.53;;
16928;SDS011;8581;47.334;11.190;2023-05-09T12:23:16;1.95;;;0.90;;
16928;SDS011;8581;47.334;11.190;2023-05-09T12:25:52;2.17;;;0.90;;
16928;SDS011;8581;47.334;11.190;2023-05-09T12:28:23;9.58;;;1.20;;
16928;SDS011;8581;47.334;11.190;2023-05-09T12:30:55;2.35;;;0.95;;
16928;SDS011;8581;47.334;11.190;2023-05-09T12:33:26;1.32;;;0.80;;
16928;SDS011;8581;47.334;11.190;2023-05-09T12:36:01;0.60;;;0.57;;
16928;SDS011;8581;47.334;11.190;2023-05-09T12:38:34;2.67;;;0.70;;
16928;SDS011;8581;47.334;11.190;2023-05-09T12:41:07;0.33;;;0.33;;
16928;SDS011;8581;47.334;11.190;2023-05-09T12:43:38;1.65;;;0.50;;
16928;SDS011;8581;47.334;11.190;2023-05-09T12:46:10;3.35;;;0.53;;
16928;SDS011;8581;47.334;11.190;2023-05-09T12:48:42;1.72;;;0.60;;
16928;SDS011;8581;47.334;11.190;2023-05-09T12:51:17;0.40;;;0.30;;
16928;SDS011;8581;47.334;11.190;2023-05-09T12:53:48;1.15;;;0.60;;
16928;SDS011;8581;47.334;11.190;2023-05-09T12:56:20;0.60;;;0.55;;
16928;SDS011;8581;47.334;11.190;2023-05-09T12:58:53;0.40;;;0.40;;
16928;SDS011;8581;47.334;11.190;2023-05-09T13:01:27;0.40;;;0.40;;
16928;SDS011;8581;47.334;11.190;2023-05-09T13:04:00;0.60;;;0.60;;
16928;SDS011;8581;47.334;11.190;2023-05-09T13:06:33;1.35;;;0.40;;
16928;SDS011;8581;47.334;11.190;2023-05-09T13:09:05;0.80;;;0.57;;
16928;SDS011;8581;47.334;11.190;2023-05-09T13:11:36;4.75;;;0.80;;
16928;SDS011;8581;47.334;11.190;2023-05-09T13:14:08;0.78;;;0.60;;
16928;SDS011;8581;47.334;11.190;2023-05-09T13:16:40;0.65;;;0.50;;
16928;SDS011;8581;47.334;11.190;2023-05-09T13:19:11;7.90;;;1.30;;
16928;SDS011;8581;47.334;11.190;2023-05-09T13:21:43;1.42;;;0.57;;
16928;SDS011;8581;47.334;11.190;2023-05-09T13:24:14;0.35;;;0.35;;
16928;SDS011;8581;47.334;11.190;2023-05-09T13:26:46;1.67;;;0.60;;
16928;SDS011;8581;47.334;11.190;2023-05-09T13:29:18;0.35;;;0.35;;
16928;SDS011;8581;47.334;11.190;2023-05-09T13:31:49;0.53;;;0.40;;
16928;SDS011;8581;47.334;11.190;2023-05-09T13:34:21;2.00;;;0.50;;
16928;SDS011;8581;47.334;11.190;2023-05-09T13:36:52;2.60;;;0.70;;
16928;SDS011;8581;47.334;11.190;2023-05-09T13:39:24;0.78;;;0.60;;
16928;SDS011;8581;47.334;11.190;2023-05-09T13:41:56;0.90;;;0.50;;
16928;SDS011;8581;47.334;11.190;2023-05-09T13:44:27;2.12;;;0.60;;
16928;SDS011;8581;47.334;11.190;2023-05-09T13:46:59;1.98;;;0.85;;
16928;SDS011;8581;47.334;11.190;2023-05-09T13:49:30;1.77;;;0.55;;
16928;SDS011;8581;47.334;11.190;2023-05-09T13:52:02;1.25;;;0.70;;
16928;SDS011;8581;47.334;11.190;2023-05-09T13:54:34;0.72;;;0.70;;
16928;SDS011;8581;47.334;11.190;2023-05-09T13:57:05;0.93;;;0.80;;
16928;SDS011;8581;47.334;11.190;2023-05-09T13:59:37;0.85;;;0.55;;
16928;SDS011;8581;47.334;11.190;2023-05-09T14:02:08;0.88;;;0.50;;
16928;SDS011;8581;47.334;11.190;2023-05-09T14:04:41;0.60;;;0.60;;
16928;SDS011;8581;47.334;11.190;2023-05-09T14:07:13;1.90;;;0.70;;
16928;SDS011;8581;47.334;11.190;2023-05-09T14:09:44;1.65;;;0.70;;
16928;SDS011;8581;47.334;11.190;2023-05-09T14:12:16;1.12;;;0.55;;
16928;SDS011;8581;47.334;11.190;2023-05-09T14:14:47;0.88;;;0.50;;
16928;SDS011;8581;47.334;11.190;2023-05-09T14:17:19;1.65;;;0.60;;
16928;SDS011;8581;47.334;11.190;2023-05-09T14:19:51;1.60;;;0.60;;
16928;SDS011;8581;47.334;11.190;2023-05-09T14:22:22;3.33;;;0.95;;
16928;SDS011;8581;47.334;11.190;2023-05-09T14:24:54;0.62;;;0.60;;
16928;SDS011;8581;47.334;11.190;2023-05-09T14:27:26;1.47;;;0.80;;
16928;SDS011;8581;47.334;11.190;2023-05-09T14:29:57;0.65;;;0.60;;
16928;SDS011;8581;47.334;11.190;2023-05-09T14:32:29;1.10;;;0.55;;
16928;SDS011;8581;47.334;11.190;2023-05-09T14:35:00;46.70;;;3.98;;
16928;SDS011;8581;47.334;11.190;2023-05-09T14:37:32;0.50;;;0.50;;
16928;SDS011;8581;47.334;11.190;2023-05-09T14:40:04;0.50;;;0.50;;
16928;SDS011;8581;47.334;11.190;2023-05-09T14:42:36;18.80;;;2.00;;
16928;SDS011;8581;47.334;11.190;2023-05-09T14:45:08;1.60;;;0.80;;
16928;SDS011;8581;47.334;11.190;2023-05-09T14:47:40;0.53;;;0.50;;
16928;SDS011;8581;47.334;11.190;2023-05-09T14:50:11;0.60;;;0.60;;
16928;SDS011;8581;47.334;11.190;2023-05-09T14:52:43;1.77;;;0.80;;
16928;SDS011;8581;47.334;11.190;2023-05-09T14:55:15;1.65;;;0.53;;
16928;SDS011;8581;47.334;11.190;2023-05-09T14:57:46;0.60;;;0.60;;
16928;SDS011;8581;47.334;11.190;2023-05-09T15:00:18;1.07;;;0.60;;
16928;SDS011;8581;47.334;11.190;2023-05-09T15:02:50;2.20;;;0.68;;
16928;SDS011;8581;47.334;11.190;2023-05-09T15:05:21;0.60;;;0.60;;
16928;SDS011;8581;47.334;11.190;2023-05-09T15:07:53;0.60;;;0.60;;
16928;SDS011;8581;47.334;11.190;2023-05-09T15:10:25;0.62;;;0.60;;
16928;SDS011;8581;47.334;11.190;2023-05-09T15:12:56;1.50;;;0.60;;
16928;SDS011;8581;47.334;11.190;2023-05-09T15:15:28;0.60;;;0.60;;
16928;SDS011;8581;47.334;11.190;2023-05-09T15:18:00;0.85;;;0.60;;